Time;durP1;ratioP1;P1;durP2;ratioP2;P2;SDS_P1;SDS_P2;PMS_P1;PMS_P2;Temp;Humidity;BMP_temperature;BMP_pressure;BME280_temperature;BME280_humidity;BME280_pressure;Samples;Min_cycle;Max_cycle;Signal;HPM_P1;HPM_P2
2021/01/23 00:02:13;;;;;;;6.82;6.13;;;6.90;63.10;;;;;;6039862;23;20225;-68
2021/01/23 00:04:41;;;;;;;8.20;6.03;;;6.80;62.90;;;;;;6040671;23;20233;-68
2021/01/23 00:07:07;;;;;;;7.38;5.82;;;6.90;63.10;;;;;;6040333;23;20201;-68
2021/01/23 00:09:34;;;;;;;9.27;6.20;;;6.90;63.20;;;;;;6040952;23;20233;-68
2021/01/23 00:12:01;;;;;;;8.15;6.57;;;6.80;63.80;;;;;;6040620;23;20171;-67
2021/01/23 00:14:28;;;;;;;8.20;6.43;;;6.80;63.90;;;;;;6040346;23;20178;-68
2021/01/23 00:16:54;;;;;;;8.65;6.07;;;6.80;63.80;;;;;;6039731;23;20171;-68
2021/01/23 00:19:21;;;;;;;10.88;7.20;;;6.80;63.70;;;;;;6040658;23;20495;-68
2021/01/23 00:21:47;;;;;;;9.85;7.63;;;6.80;64.10;;;;;;6040301;23;20519;-68
2021/01/23 00:24:14;;;;;;;10.82;7.18;;;6.80;64.70;;;;;;6039696;23;20202;-68
2021/01/23 00:26:43;;;;;;;7.63;6.80;;;6.80;64.90;;;;;;6040626;23;20178;-68
2021/01/23 00:29:12;;;;;;;9.23;7.93;;;6.80;65.00;;;;;;6039996;23;20166;-68
2021/01/23 00:31:38;;;;;;;10.05;7.00;;;6.80;65.50;;;;;;6040661;23;20218;-68
2021/01/23 00:34:05;;;;;;;8.90;7.95;;;6.70;65.70;;;;;;6039671;23;20202;-68
2021/01/23 00:36:31;;;;;;;10.80;7.50;;;6.80;65.80;;;;;;6040083;23;20623;-68
2021/01/23 00:38:58;;;;;;;10.57;8.30;;;6.70;65.90;;;;;;6039956;23;20206;-69
2021/01/23 00:41:26;;;;;;;8.85;7.53;;;6.70;65.90;;;;;;6040477;23;20226;-68
2021/01/23 00:43:53;;;;;;;10.40;8.77;;;6.70;66.20;;;;;;6039891;23;20245;-68
2021/01/23 00:46:21;;;;;;;10.38;8.60;;;6.80;66.50;;;;;;6040313;23;20223;-68
2021/01/23 00:48:48;;;;;;;9.90;8.90;;;6.80;66.90;;;;;;6040142;23;20196;-68
2021/01/23 00:51:14;;;;;;;12.75;9.02;;;6.80;67.00;;;;;;6039476;23;20170;-69
2021/01/23 00:53:41;;;;;;;11.15;8.75;;;6.90;67.00;;;;;;6040366;23;20174;-68
2021/01/23 00:56:07;;;;;;;12.57;9.85;;;6.90;66.80;;;;;;6040340;23;20170;-68
2021/01/23 00:58:34;;;;;;;10.55;9.25;;;6.90;67.60;;;;;;6039717;23;20171;-68
2021/01/23 01:01:00;;;;;;;12.10;9.30;;;6.90;67.50;;;;;;6040057;23;20578;-72
2021/01/23 01:03:28;;;;;;;10.82;9.50;;;6.90;67.60;;;;;;6039366;23;20206;-68
2021/01/23 01:05:54;;;;;;;16.13;9.27;;;7.00;67.30;;;;;;6040346;23;20495;-68
2021/01/23 01:08:21;;;;;;;14.63;10.80;;;7.00;67.70;;;;;;6040000;23;20174;-68
2021/01/23 01:10:47;;;;;;;13.52;11.18;;;7.00;67.70;;;;;;6039877;23;20202;-68
2021/01/23 01:13:14;;;;;;;14.00;10.55;;;7.00;67.50;;;;;;6039842;23;20170;-68
2021/01/23 01:15:41;;;;;;;12.30;10.15;;;7.00;67.50;;;;;;6039603;23;20618;-68
2021/01/23 01:18:08;;;;;;;12.40;10.00;;;7.00;67.60;;;;;;6039742;23;20170;-68
2021/01/23 01:20:35;;;;;;;10.82;9.68;;;7.10;67.80;;;;;;6039280;23;20170;-69
2021/01/23 01:23:02;;;;;;;11.20;10.07;;;7.10;67.60;;;;;;6039414;23;20626;-68
2021/01/23 01:25:29;;;;;;;9.80;8.80;;;7.10;67.70;;;;;;6039731;23;20194;-68
2021/01/23 01:27:55;;;;;;;12.65;9.02;;;7.10;67.70;;;;;;6040047;23;20166;-68
2021/01/23 01:30:22;;;;;;;13.02;8.70;;;7.10;67.80;;;;;;6039501;23;20171;-68
2021/01/23 01:32:49;;;;;;;8.90;8.00;;;7.10;67.70;;;;;;6039570;23;20500;-68
2021/01/23 01:35:16;;;;;;;10.27;7.90;;;7.10;68.20;;;;;;6039559;23;20182;-68
2021/01/23 01:37:43;;;;;;;7.47;6.18;;;7.10;68.30;;;;;;6039599;23;20470;-69
2021/01/23 01:40:11;;;;;;;5.38;4.45;;;7.00;68.30;;;;;;6038955;23;20170;-68
2021/01/23 01:42:38;;;;;;;4.68;3.67;;;7.00;68.60;;;;;;6039530;23;20167;-68
2021/01/23 01:45:05;;;;;;;3.88;3.25;;;7.00;68.60;;;;;;6039253;23;20190;-68
2021/01/23 01:47:33;;;;;;;3.60;2.70;;;6.90;68.70;;;;;;6039552;23;20171;-68
2021/01/23 01:49:59;;;;;;;3.45;2.45;;;6.80;68.60;;;;;;6039107;23;20901;-67
2021/01/23 01:52:26;;;;;;;3.17;2.17;;;6.70;68.60;;;;;;6038974;23;20174;-67
2021/01/23 01:54:54;;;;;;;2.65;1.60;;;6.70;69.10;;;;;;6039499;23;20472;-68
2021/01/23 01:57:21;;;;;;;5.10;3.08;;;6.60;69.00;;;;;;6039203;23;20174;-68
2021/01/23 01:59:48;;;;;;;2.67;1.98;;;6.60;69.00;;;;;;6039246;23;20539;-70
2021/01/23 02:02:29;;;;;;;2.70;1.77;;;6.60;69.00;;;;;;6039279;23;20201;-68
2021/01/23 02:05:01;;;;;;;1.92;1.33;;;6.50;69.40;;;;;;6039377;23;20277;-69
2021/01/23 02:07:41;;;;;;;1.80;1.40;;;6.50;69.40;;;;;;6039706;23;20166;-68
2021/01/23 02:10:19;;;;;;;1.90;1.50;;;6.40;70.00;;;;;;6039036;23;20154;-68
2021/01/23 02:13:00;;;;;;;2.70;1.50;;;6.40;70.00;;;;;;6039641;23;20166;-68
2021/01/23 02:15:29;;;;;;;2.35;1.80;;;6.30;70.00;;;;;;6039086;23;20578;-68
2021/01/23 02:18:04;;;;;;;2.03;1.13;;;6.30;70.70;;;;;;6038962;23;20174;-67
2021/01/23 02:20:54;;;;;;;2.40;1.20;;;6.30;70.80;;;;;;6039494;23;20166;-67
2021/01/23 02:23:24;;;;;;;2.53;0.90;;;6.20;70.70;;;;;;6039451;23;20513;-68
2021/01/23 02:26:01;;;;;;;1.83;0.93;;;6.10;70.20;;;;;;6038718;23;20202;-67
2021/01/23 02:29:06;;;;;;;1.60;0.80;;;6.10;70.20;;;;;;6039617;23;20166;-68
2021/01/23 02:31:37;;;;;;;1.70;0.80;;;6.10;70.70;;;;;;6026542;23;20535;-68
2021/01/23 02:34:06;;;;;;;1.60;0.57;;;6.10;71.40;;;;;;6039361;23;20456;-68
2021/01/23 02:36:35;;;;;;;1.40;0.50;;;6.10;71.30;;;;;;6038945;23;20535;-68
2021/01/23 02:39:02;;;;;;;1.40;0.50;;;6.00;70.80;;;;;;6039346;23;20182;-68
2021/01/23 02:41:30;;;;;;;1.20;0.50;;;5.90;70.60;;;;;;6039791;23;20221;-69
2021/01/23 02:43:57;;;;;;;1.30;0.55;;;5.90;70.80;;;;;;6040916;23;20190;-67
2021/01/23 02:46:24;;;;;;;1.58;0.75;;;5.80;71.00;;;;;;6041372;23;20497;-68
2021/01/23 02:48:52;;;;;;;1.20;0.40;;;5.80;70.70;;;;;;6040547;23;20174;-69
2021/01/23 02:51:33;;;;;;;1.20;0.47;;;5.70;70.20;;;;;;6040784;23;20619;-68
2021/01/23 02:54:04;;;;;;;1.20;0.40;;;5.70;70.10;;;;;;6041214;23;20230;-68
2021/01/23 02:56:33;;;;;;;1.20;0.50;;;5.60;70.80;;;;;;6041180;23;20155;-67
2021/01/23 02:59:03;;;;;;;1.20;0.50;;;5.50;70.90;;;;;;6040218;23;20198;-68
2021/01/23 03:01:33;;;;;;;2.58;0.60;;;5.50;71.10;;;;;;6040830;23;20197;-68
2021/01/23 03:04:02;;;;;;;1.20;0.50;;;5.40;71.10;;;;;;6041015;23;20179;-68
2021/01/23 03:06:29;;;;;;;1.20;0.50;;;5.40;71.30;;;;;;6040723;23;20167;-68
2021/01/23 03:08:56;;;;;;;1.20;0.47;;;5.40;71.60;;;;;;6040453;23;20238;-68
2021/01/23 03:11:22;;;;;;;1.20;0.40;;;5.40;71.30;;;;;;6040884;23;20190;-67
2021/01/23 03:13:49;;;;;;;1.20;0.50;;;5.40;70.90;;;;;;6040686;23;20618;-67
2021/01/23 03:16:15;;;;;;;1.20;0.50;;;5.40;70.40;;;;;;6040609;23;20206;-68
2021/01/23 03:18:42;;;;;;;1.30;0.50;;;5.30;70.60;;;;;;6040350;23;20171;-68
2021/01/23 03:21:09;;;;;;;1.42;0.60;;;5.30;70.90;;;;;;6040816;23;20526;-68
2021/01/23 03:23:36;;;;;;;1.75;0.50;;;5.20;70.70;;;;;;6040202;23;20234;-67
2021/01/23 03:26:02;;;;;;;1.30;0.50;;;5.20;70.90;;;;;;6040957;23;20222;-68
2021/01/23 03:28:29;;;;;;;1.20;0.50;;;5.10;70.50;;;;;;6041054;23;20258;-68
2021/01/23 03:30:55;;;;;;;1.20;0.50;;;5.10;70.40;;;;;;6040635;23;20281;-67
2021/01/23 03:33:22;;;;;;;1.20;0.50;;;5.00;70.30;;;;;;6040990;23;20174;-67
2021/01/23 03:35:48;;;;;;;1.30;0.55;;;4.90;70.80;;;;;;6040509;23;20166;-68
2021/01/23 03:38:15;;;;;;;1.20;0.40;;;4.80;71.00;;;;;;6040927;23;20166;-69
2021/01/23 03:40:42;;;;;;;1.20;0.40;;;4.90;71.10;;;;;;6040321;23;20171;-68
2021/01/23 03:43:08;;;;;;;1.20;0.40;;;4.90;71.00;;;;;;6040720;23;20497;-67
2021/01/23 03:45:35;;;;;;;1.30;0.50;;;4.90;70.60;;;;;;6040424;23;20230;-68
2021/01/23 03:48:01;;;;;;;1.20;0.40;;;4.80;70.40;;;;;;6040308;23;20202;-68
2021/01/23 03:50:28;;;;;;;1.20;0.40;;;4.80;70.20;;;;;;6040183;23;20175;-68
2021/01/23 03:52:55;;;;;;;1.30;0.50;;;4.80;70.20;;;;;;6040235;23;20635;-67
2021/01/23 03:55:23;;;;;;;3.92;0.50;;;4.90;70.10;;;;;;6040079;23;20170;-68
2021/01/23 03:57:49;;;;;;;1.88;0.40;;;4.80;70.60;;;;;;6040701;23;20170;-67
2021/01/23 04:00:16;;;;;;;1.20;0.40;;;4.80;70.10;;;;;;6040265;23;20555;-67
2021/01/23 04:02:43;;;;;;;1.20;0.50;;;4.70;70.40;;;;;;6040819;23;20198;-68
2021/01/23 04:05:10;;;;;;;1.20;0.50;;;4.70;70.80;;;;;;6040488;23;20194;-68
2021/01/23 04:07:37;;;;;;;1.20;0.50;;;4.70;70.30;;;;;;6040499;23;20170;-68
2021/01/23 04:10:05;;;;;;;1.20;0.50;;;4.60;70.60;;;;;;6040399;23;20167;-67
2021/01/23 04:12:33;;;;;;;1.20;0.50;;;4.60;70.70;;;;;;6040700;23;20226;-67
2021/01/23 04:14:59;;;;;;;1.20;0.40;;;4.60;71.10;;;;;;6040507;23;20200;-68
2021/01/23 04:17:26;;;;;;;1.20;0.40;;;4.60;70.90;;;;;;6040127;23;20623;-68
2021/01/23 04:19:52;;;;;;;1.20;0.40;;;4.70;71.30;;;;;;6040258;23;20194;-68
2021/01/23 04:22:19;;;;;;;1.20;0.40;;;4.70;71.60;;;;;;6040613;23;20166;-68
2021/01/23 04:24:46;;;;;;;1.20;0.50;;;4.70;71.80;;;;;;6040008;23;20194;-68
2021/01/23 04:27:12;;;;;;;1.20;0.40;;;4.70;71.30;;;;;;6040614;23;20171;-68
2021/01/23 04:29:39;;;;;;;1.20;0.40;;;4.60;71.90;;;;;;6040193;23;20177;-67
2021/01/23 04:32:06;;;;;;;5.25;0.50;;;4.60;71.90;;;;;;6039990;23;20750;-67
2021/01/23 04:34:32;;;;;;;1.20;0.50;;;4.70;72.10;;;;;;6040303;23;20220;-68
2021/01/23 04:36:59;;;;;;;1.20;0.50;;;4.60;72.10;;;;;;6040470;23;20177;-68
2021/01/23 04:39:25;;;;;;;1.20;0.40;;;4.60;72.20;;;;;;6039747;23;20179;-69
2021/01/23 04:41:52;;;;;;;1.20;0.50;;;4.60;72.30;;;;;;6040569;23;20178;-68
2021/01/23 04:44:18;;;;;;;1.20;0.40;;;4.60;72.00;;;;;;6039729;23;20191;-67
2021/01/23 04:46:46;;;;;;;1.17;0.40;;;4.60;72.40;;;;;;6040235;23;20490;-68
2021/01/23 04:49:12;;;;;;;1.20;0.40;;;4.50;72.60;;;;;;6040213;23;20167;-67
2021/01/23 04:51:39;;;;;;;1.20;0.40;;;4.50;72.40;;;;;;6040352;23;20177;-67
2021/01/23 04:54:06;;;;;;;1.20;0.43;;;4.50;71.90;;;;;;6039943;23;20365;-67
2021/01/23 04:56:32;;;;;;;1.50;0.68;;;4.50;72.30;;;;;;6039935;23;20170;-69
2021/01/23 04:58:59;;;;;;;1.30;0.50;;;4.40;72.00;;;;;;6039774;23;20166;-68
2021/01/23 05:01:25;;;;;;;1.23;0.50;;;4.40;73.00;;;;;;6039628;23;20201;-68
2021/01/23 05:04:00;;;;;;;1.30;0.50;;;4.40;73.20;;;;;;6039944;23;20178;-68
2021/01/23 05:06:27;;;;;;;1.20;0.50;;;4.50;72.70;;;;;;6040066;23;20173;-68
2021/01/23 05:08:54;;;;;;;1.40;0.55;;;4.40;72.40;;;;;;6040226;23;20618;-68
2021/01/23 05:11:21;;;;;;;1.20;0.50;;;4.50;72.60;;;;;;6039623;23;20226;-68
2021/01/23 05:14:11;;;;;;;1.20;0.50;;;4.50;72.60;;;;;;6040154;23;20177;-67
2021/01/23 05:16:38;;;;;;;1.20;0.50;;;4.50;71.80;;;;;;6039539;23;20159;-68
2021/01/23 05:19:06;;;;;;;1.50;0.50;;;4.50;71.70;;;;;;6040049;23;20171;-67
2021/01/23 05:21:34;;;;;;;1.20;0.50;;;4.50;72.10;;;;;;6039824;23;20166;-67
2021/01/23 05:24:09;;;;;;;1.20;0.40;;;4.50;71.60;;;;;;6039870;23;20166;-67
2021/01/23 05:26:36;;;;;;;1.20;0.50;;;4.40;71.50;;;;;;6040013;23;20226;-67
2021/01/23 05:29:07;;;;;;;1.20;0.40;;;4.50;71.80;;;;;;6039611;23;20170;-68
2021/01/23 05:31:34;;;;;;;1.90;0.70;;;4.50;71.90;;;;;;6039539;23;20207;-68
2021/01/23 05:34:01;;;;;;;1.20;0.50;;;4.50;71.70;;;;;;6039940;23;20206;-68
2021/01/23 05:36:28;;;;;;;1.20;0.40;;;4.50;71.60;;;;;;6040030;23;20183;-69
2021/01/23 05:38:56;;;;;;;1.20;0.45;;;4.50;71.90;;;;;;6039935;23;20170;-68
2021/01/23 05:41:22;;;;;;;1.35;0.47;;;4.50;71.50;;;;;;6039345;23;20174;-68
2021/01/23 05:43:50;;;;;;;1.48;0.55;;;4.50;71.20;;;;;;6039379;23;20171;-67
2021/01/23 05:46:18;;;;;;;1.30;0.50;;;4.50;71.20;;;;;;6039278;23;20708;-68
2021/01/23 05:48:46;;;;;;;1.20;0.50;;;4.50;71.40;;;;;;6039462;23;20170;-67
2021/01/23 05:51:14;;;;;;;1.20;0.50;;;4.50;71.60;;;;;;6039558;23;20495;-67
2021/01/23 05:53:41;;;;;;;1.30;0.50;;;4.50;72.30;;;;;;6039320;23;20170;-68
2021/01/23 05:56:08;;;;;;;1.23;0.50;;;4.50;72.30;;;;;;6039323;23;20172;-68
2021/01/23 05:58:36;;;;;;;1.27;0.50;;;4.60;71.50;;;;;;6039723;23;20170;-67
2021/01/23 06:01:04;;;;;;;1.20;0.50;;;4.60;71.30;;;;;;6039116;23;20685;-68
2021/01/23 06:03:36;;;;;;;1.20;0.40;;;4.60;71.20;;;;;;6039361;23;20162;-68
2021/01/23 06:06:03;;;;;;;1.30;0.60;;;4.60;71.00;;;;;;6039361;23;20186;-68
2021/01/23 06:08:41;;;;;;;1.30;0.60;;;4.60;71.00;;;;;;6039980;23;20166;-68
2021/01/23 06:11:38;;;;;;;1.63;0.50;;;4.60;71.20;;;;;;6039246;23;20166;-68
2021/01/23 06:14:05;;;;;;;1.30;0.60;;;4.60;71.50;;;;;;6039204;23;20167;-68
2021/01/23 06:16:44;;;;;;;1.20;0.50;;;4.60;71.50;;;;;;6038785;23;20171;-68
2021/01/23 06:19:42;;;;;;;1.30;0.52;;;4.60;71.60;;;;;;6039615;23;20165;-68
2021/01/23 06:22:09;;;;;;;1.20;0.50;;;4.60;71.60;;;;;;5952468;24;20655;-69
2021/01/23 06:24:55;;;;;;;1.60;0.60;;;4.50;71.20;;;;;;6019583;23;20194;-67
2021/01/23 06:27:23;;;;;;;2.95;0.50;;;4.60;71.50;;;;;;6039425;23;20547;-68
2021/01/23 06:29:49;;;;;;;1.20;0.50;;;4.60;71.60;;;;;;6039155;23;20170;-68
2021/01/23 06:32:31;;;;;;;1.55;0.60;;;4.50;71.30;;;;;;6039148;23;20171;-69
2021/01/23 06:35:00;;;;;;;1.50;0.60;;;4.50;71.30;;;;;;6039487;23;20177;-68
2021/01/23 06:37:29;;;;;;;1.27;0.50;;;4.60;71.30;;;;;;6038971;23;20634;-68
2021/01/23 06:40:01;;;;;;;1.30;0.60;;;4.60;71.30;;;;;;6039311;23;20672;-69
2021/01/23 06:42:28;;;;;;;1.40;0.70;;;4.50;71.30;;;;;;6039490;23;20181;-68
2021/01/23 06:44:54;;;;;;;1.30;0.50;;;4.50;71.10;;;;;;6039609;23;20236;-67
2021/01/23 06:47:21;;;;;;;1.20;0.50;;;4.50;71.30;;;;;;6039152;23;20167;-68
2021/01/23 06:49:47;;;;;;;1.35;0.60;;;4.50;71.10;;;;;;6039542;23;20181;-67
2021/01/23 06:52:14;;;;;;;1.20;0.50;;;4.50;71.30;;;;;;6039426;23;20171;-68
2021/01/23 06:54:46;;;;;;;1.20;0.50;;;4.50;71.40;;;;;;6039531;23;20167;-68
2021/01/23 06:57:14;;;;;;;2.00;0.60;;;4.50;71.30;;;;;;6019055;23;20177;-68
2021/01/23 06:59:44;;;;;;;1.40;0.50;;;4.60;71.40;;;;;;6031827;23;20166;-68
2021/01/23 07:02:13;;;;;;;1.30;0.55;;;4.60;71.30;;;;;;6019460;23;20198;-68
2021/01/23 07:04:51;;;;;;;1.20;0.57;;;4.60;71.60;;;;;;6025194;23;20195;-68
2021/01/23 07:07:21;;;;;;;1.45;0.60;;;4.50;71.30;;;;;;6028047;23;20227;-68
2021/01/23 07:09:49;;;;;;;1.20;0.50;;;4.60;71.60;;;;;;6037018;23;20677;-68
2021/01/23 07:12:37;;;;;;;1.40;0.60;;;4.60;71.20;;;;;;6036560;23;20649;-67
2021/01/23 07:15:07;;;;;;;1.60;0.70;;;4.60;71.80;;;;;;6037952;23;20171;-68
2021/01/23 07:17:37;;;;;;;2.42;0.70;;;4.60;72.10;;;;;;6035257;23;20522;-68
2021/01/23 07:20:08;;;;;;;1.52;0.50;;;4.50;71.80;;;;;;6033557;23;20494;-70
2021/01/23 07:22:36;;;;;;;1.30;0.60;;;4.60;72.00;;;;;;6036161;23;20622;-67
2021/01/23 07:25:04;;;;;;;1.67;1.00;;;4.50;71.90;;;;;;6037055;23;20182;-67
2021/01/23 07:27:31;;;;;;;2.00;1.10;;;4.50;72.20;;;;;;6036637;23;20171;-66
2021/01/23 07:29:59;;;;;;;2.53;1.02;;;4.60;72.30;;;;;;6036539;23;20171;-68
2021/01/23 07:32:35;;;;;;;1.40;0.70;;;4.60;72.30;;;;;;6037256;23;20218;-67
2021/01/23 07:35:02;;;;;;;1.50;0.75;;;4.60;72.70;;;;;;6037078;23;20174;-68
2021/01/23 07:37:48;;;;;;;1.50;0.60;;;4.60;72.70;;;;;;6038706;23;20170;-70
2021/01/23 07:40:16;;;;;;;1.30;0.63;;;4.60;72.50;;;;;;6036668;23;20166;-67
2021/01/23 07:42:43;;;;;;;1.50;0.68;;;4.70;72.60;;;;;;6037624;23;20189;-67
2021/01/23 07:45:13;;;;;;;1.40;0.70;;;4.60;72.70;;;;;;6037461;23;20194;-67
2021/01/23 07:47:40;;;;;;;1.63;0.75;;;4.70;73.00;;;;;;6036935;23;20206;-66
2021/01/23 07:50:09;;;;;;;1.45;0.70;;;4.70;73.00;;;;;;6036991;23;20174;-67
2021/01/23 07:52:37;;;;;;;3.03;1.05;;;4.80;72.80;;;;;;6038058;23;20182;-67
2021/01/23 07:55:07;;;;;;;1.60;0.75;;;4.80;72.60;;;;;;6040024;23;20253;-66
2021/01/23 07:57:34;;;;;;;2.58;1.25;;;4.80;72.10;;;;;;6039430;23;20162;-67
2021/01/23 08:00:04;;;;;;;1.80;1.05;;;4.80;72.90;;;;;;6039741;23;20177;-66
2021/01/23 08:02:49;;;;;;;5.05;3.42;;;4.80;72.80;;;;;;6039010;23;20194;-66
2021/01/23 08:05:16;;;;;;;12.10;8.82;;;4.90;72.80;;;;;;6039774;23;20190;-67
2021/01/23 08:07:43;;;;;;;14.18;11.05;;;4.90;72.40;;;;;;6040133;23;20175;-68
2021/01/23 08:10:16;;;;;;;12.30;8.25;;;4.90;72.80;;;;;;6039043;23;20704;-69
2021/01/23 08:12:55;;;;;;;7.43;5.22;;;4.90;72.20;;;;;;6039179;23;20286;-70
2021/01/23 08:15:26;;;;;;;4.88;3.42;;;4.90;72.10;;;;;;6037027;23;20603;-72
2021/01/23 08:17:55;;;;;;;3.33;2.33;;;4.80;72.60;;;;;;6039630;23;20155;-67
2021/01/23 08:20:33;;;;;;;2.50;1.77;;;4.80;73.40;;;;;;6039531;23;20178;-67
2021/01/23 08:23:03;;;;;;;2.90;1.77;;;4.80;74.10;;;;;;6039313;23;20159;-69
2021/01/23 08:25:31;;;;;;;3.30;2.00;;;4.80;73.90;;;;;;6039295;23;20314;-68
2021/01/23 08:27:58;;;;;;;3.10;1.40;;;4.80;74.10;;;;;;6039520;23;20166;-67
2021/01/23 08:30:26;;;;;;;7.28;4.47;;;4.90;74.20;;;;;;6039030;23;20170;-68
2021/01/23 08:32:57;;;;;;;3.30;2.30;;;4.90;74.30;;;;;;6039808;23;20175;-68
2021/01/23 08:35:25;;;;;;;12.23;6.90;;;5.00;74.10;;;;;;6039053;23;20206;-67
2021/01/23 08:37:52;;;;;;;5.15;4.20;;;5.00;73.80;;;;;;6039884;23;20634;-68
2021/01/23 08:40:20;;;;;;;4.88;2.80;;;5.10;73.40;;;;;;6039364;23;20274;-67
2021/01/23 08:42:47;;;;;;;3.90;2.22;;;5.20;73.70;;;;;;6036770;23;20186;-71
2021/01/23 08:45:14;;;;;;;2.85;1.70;;;5.20;73.50;;;;;;6038150;23;20662;-67
2021/01/23 08:47:40;;;;;;;4.68;2.30;;;5.30;73.50;;;;;;6039568;23;20170;-68
2021/01/23 08:50:09;;;;;;;3.35;2.47;;;5.50;73.60;;;;;;6039148;23;20249;-68
2021/01/23 08:52:35;;;;;;;3.17;2.50;;;5.60;73.40;;;;;;6040214;23;20245;-68
2021/01/23 08:55:02;;;;;;;3.55;2.22;;;5.70;72.10;;;;;;6039464;23;20250;-69
2021/01/23 08:57:28;;;;;;;3.03;2.10;;;5.70;72.10;;;;;;6039277;23;20250;-70
2021/01/23 08:59:54;;;;;;;3.25;2.10;;;5.70;71.50;;;;;;6039281;23;20306;-68
2021/01/23 09:02:23;;;;;;;6.10;2.40;;;5.90;71.30;;;;;;6038867;23;20274;-68
2021/01/23 09:04:49;;;;;;;5.55;2.70;;;6.10;70.00;;;;;;6039256;23;20198;-68
2021/01/23 09:07:17;;;;;;;4.15;2.45;;;6.30;69.20;;;;;;6039139;23;20253;-67
2021/01/23 09:09:44;;;;;;;2.80;2.03;;;6.60;69.40;;;;;;6039407;23;20490;-68
2021/01/23 09:12:11;;;;;;;2.88;1.80;;;6.80;68.50;;;;;;6039325;23;20205;-68
2021/01/23 09:14:38;;;;;;;2.00;1.33;;;7.00;67.40;;;;;;6039040;23;20178;-67
2021/01/23 09:17:05;;;;;;;2.25;1.65;;;7.20;67.00;;;;;;6038737;23;20625;-67
2021/01/23 09:19:31;;;;;;;3.38;1.80;;;7.40;65.20;;;;;;6039141;23;20532;-67
2021/01/23 09:22:03;;;;;;;3.97;1.40;;;7.40;64.00;;;;;;6039330;23;20254;-68
2021/01/23 09:24:30;;;;;;;4.53;1.35;;;7.40;62.80;;;;;;6039053;23;20261;-67
2021/01/23 09:26:57;;;;;;;3.17;1.63;;;7.60;62.00;;;;;;6039258;23;20262;-69
2021/01/23 09:29:23;;;;;;;1.83;1.15;;;7.70;61.60;;;;;;6038560;23;20250;-69
2021/01/23 09:31:49;;;;;;;1.90;1.45;;;7.70;61.20;;;;;;6039079;23;20201;-69
2021/01/23 09:34:16;;;;;;;3.38;1.80;;;7.80;60.20;;;;;;6038509;23;20677;-69
2021/01/23 09:36:43;;;;;;;4.55;1.90;;;7.90;60.30;;;;;;6039059;23;20166;-66
2021/01/23 09:39:09;;;;;;;2.35;1.45;;;8.00;59.70;;;;;;6039126;23;20209;-67
2021/01/23 09:41:36;;;;;;;2.33;1.42;;;8.20;60.00;;;;;;6039328;23;20432;-69
2021/01/23 09:44:03;;;;;;;2.47;1.60;;;8.40;58.80;;;;;;6038941;23;20189;-70
2021/01/23 09:46:30;;;;;;;1.70;1.20;;;9.10;58.50;;;;;;6039091;23;20253;-69
2021/01/23 09:48:57;;;;;;;2.38;1.55;;;9.80;56.80;;;;;;6039003;23;20177;-69
2021/01/23 09:51:23;;;;;;;2.60;1.77;;;10.40;54.90;;;;;;6038550;23;20177;-70
2021/01/23 09:53:50;;;;;;;3.30;2.08;;;11.30;54.00;;;;;;6038671;23;20214;-67
2021/01/23 09:56:16;;;;;;;3.75;1.50;;;11.80;50.20;;;;;;6038954;23;20205;-69
2021/01/23 09:58:43;;;;;;;3.97;2.72;;;12.30;49.20;;;;;;6039231;23;20255;-67
2021/01/23 10:01:10;;;;;;;3.65;2.42;;;12.40;48.40;;;;;;6037938;23;20273;-67
2021/01/23 10:03:36;;;;;;;4.07;2.60;;;12.10;46.60;;;;;;6038454;23;20217;-67
2021/01/23 10:06:03;;;;;;;2.67;1.92;;;11.60;46.20;;;;;;6038582;23;20197;-68
2021/01/23 10:08:29;;;;;;;2.58;2.13;;;11.20;47.10;;;;;;6039283;23;20284;-67
2021/01/23 10:10:56;;;;;;;2.60;2.00;;;10.90;47.90;;;;;;6038734;23;20213;-67
2021/01/23 10:13:22;;;;;;;2.80;1.88;;;10.50;48.90;;;;;;6038744;23;20697;-69
2021/01/23 10:15:49;;;;;;;2.33;1.70;;;10.30;49.00;;;;;;6038789;23;20245;-67
2021/01/23 10:18:16;;;;;;;2.85;1.67;;;10.10;48.70;;;;;;6038432;23;20210;-67
2021/01/23 10:20:42;;;;;;;4.05;1.75;;;9.70;49.60;;;;;;6038673;23;20685;-68
2021/01/23 10:23:09;;;;;;;2.25;1.63;;;9.50;50.80;;;;;;6038349;23;20205;-67
2021/01/23 10:25:36;;;;;;;4.03;2.15;;;9.30;51.70;;;;;;6038508;23;20737;-67
2021/01/23 10:28:02;;;;;;;2.78;1.63;;;9.10;50.80;;;;;;6038772;23;20457;-68
2021/01/23 10:30:29;;;;;;;3.05;1.80;;;8.90;51.40;;;;;;6038818;23;20213;-67
2021/01/23 10:32:56;;;;;;;2.85;1.70;;;8.80;51.30;;;;;;6038867;23;20212;-69
2021/01/23 10:35:23;;;;;;;5.53;1.70;;;8.70;51.50;;;;;;6038944;23;20212;-67
2021/01/23 10:37:49;;;;;;;3.78;2.20;;;8.50;52.10;;;;;;6038654;23;20202;-67
2021/01/23 10:40:19;;;;;;;2.25;1.42;;;8.40;52.40;;;;;;6038803;23;20235;-67
2021/01/23 10:42:46;;;;;;;4.05;2.50;;;8.30;52.60;;;;;;6038772;23;20229;-68
2021/01/23 10:45:17;;;;;;;4.25;2.60;;;8.20;52.30;;;;;;6038343;23;20650;-67
2021/01/23 10:47:49;;;;;;;6.55;3.00;;;8.10;52.90;;;;;;6038884;23;20155;-67
2021/01/23 10:50:22;;;;;;;8.38;4.78;;;8.10;53.20;;;;;;6038428;23;20163;-68
2021/01/23 10:52:51;;;;;;;5.15;3.53;;;8.00;53.50;;;;;;6038935;23;20237;-67
2021/01/23 10:55:22;;;;;;;6.00;3.90;;;7.90;52.60;;;;;;6038095;23;20178;-67
2021/01/23 10:57:52;;;;;;;4.90;2.50;;;7.80;52.80;;;;;;6038769;23;20159;-67
2021/01/23 11:00:31;;;;;;;3.30;2.10;;;7.80;53.20;;;;;;6038523;23;20584;-67
2021/01/23 11:03:13;;;;;;;5.43;3.75;;;7.80;53.40;;;;;;6038442;23;20188;-68
2021/01/23 11:05:41;;;;;;;6.57;4.15;;;7.80;54.10;;;;;;6040239;23;20662;-67
2021/01/23 11:08:08;;;;;;;9.85;5.25;;;7.90;54.80;;;;;;6040104;23;20167;-68
2021/01/23 11:10:36;;;;;;;3.95;2.45;;;7.90;53.90;;;;;;6039540;23;20298;-68
2021/01/23 11:13:03;;;;;;;3.60;1.90;;;8.00;53.80;;;;;;6039426;23;20185;-67
2021/01/23 11:15:30;;;;;;;3.35;1.52;;;8.00;54.00;;;;;;6039641;23;20175;-68
2021/01/23 11:18:02;;;;;;;4.53;1.83;;;8.10;53.60;;;;;;6039732;23;20170;-69
2021/01/23 11:20:29;;;;;;;1.92;1.30;;;8.20;53.00;;;;;;6039133;23;20488;-67
2021/01/23 11:22:58;;;;;;;3.60;1.90;;;8.20;53.60;;;;;;6040660;23;20171;-68
2021/01/23 11:25:29;;;;;;;3.58;2.35;;;8.40;53.40;;;;;;6040183;23;20498;-69
2021/01/23 11:27:56;;;;;;;2.30;1.70;;;8.60;52.40;;;;;;6040654;23;20494;-68
2021/01/23 11:30:24;;;;;;;2.97;1.65;;;8.80;51.90;;;;;;6040284;23;20186;-68
2021/01/23 11:32:51;;;;;;;2.50;1.73;;;8.90;51.40;;;;;;6039609;23;20177;-68
2021/01/23 11:35:18;;;;;;;3.97;2.03;;;8.90;50.90;;;;;;6039602;23;20182;-68
2021/01/23 11:37:45;;;;;;;2.38;1.55;;;8.80;50.80;;;;;;6040593;23;20167;-67
2021/01/23 11:40:12;;;;;;;3.17;1.60;;;8.70;50.60;;;;;;6037988;23;20245;-67
2021/01/23 11:42:39;;;;;;;6.38;1.95;;;8.60;50.50;;;;;;6039819;23;20202;-68
2021/01/23 11:45:08;;;;;;;2.45;1.65;;;8.50;50.40;;;;;;6040050;23;20364;-68
2021/01/23 11:47:35;;;;;;;3.08;2.03;;;8.40;50.90;;;;;;6039881;23;20232;-68
2021/01/23 11:50:01;;;;;;;2.90;1.80;;;8.30;50.70;;;;;;6039694;23;20189;-69
2021/01/23 11:52:29;;;;;;;1.90;1.20;;;8.20;51.10;;;;;;6039709;23;20198;-67
2021/01/23 11:54:56;;;;;;;2.55;1.35;;;8.20;50.90;;;;;;6040378;23;20181;-68
2021/01/23 11:57:24;;;;;;;2.50;1.73;;;8.10;50.60;;;;;;6039197;23;20245;-68
2021/01/23 11:59:50;;;;;;;2.13;1.52;;;8.10;50.70;;;;;;6038965;23;20470;-67
2021/01/23 12:02:18;;;;;;;3.70;1.73;;;8.10;50.90;;;;;;6039619;23;20205;-70
2021/01/23 12:04:47;;;;;;;2.83;2.30;;;8.00;51.40;;;;;;6040077;23;20174;-67
2021/01/23 12:07:15;;;;;;;4.00;1.90;;;7.90;50.80;;;;;;6039580;23;20182;-67
2021/01/23 12:09:41;;;;;;;2.78;1.63;;;7.90;51.60;;;;;;6039430;23;20171;-67
2021/01/23 12:12:08;;;;;;;2.55;1.40;;;7.90;51.50;;;;;;6039542;23;20202;-68
2021/01/23 12:14:36;;;;;;;3.78;1.65;;;7.90;50.90;;;;;;6039396;23;20623;-67
2021/01/23 12:17:02;;;;;;;2.60;1.60;;;8.00;51.20;;;;;;6040074;23;20193;-67
2021/01/23 12:19:30;;;;;;;4.40;2.67;;;8.00;51.40;;;;;;6039290;23;20170;-68
2021/01/23 12:21:57;;;;;;;4.65;2.30;;;8.00;51.70;;;;;;6039500;23;20660;-69
2021/01/23 12:24:24;;;;;;;2.22;1.50;;;8.00;52.30;;;;;;6039759;23;20650;-68
2021/01/23 12:26:50;;;;;;;2.85;1.60;;;8.00;52.50;;;;;;6039804;23;20626;-67
2021/01/23 12:29:22;;;;;;;3.83;2.33;;;7.80;52.70;;;;;;6038929;23;20209;-67
2021/01/23 12:31:50;;;;;;;2.05;1.73;;;7.80;52.90;;;;;;6039140;23;20591;-68
2021/01/23 12:34:16;;;;;;;4.40;2.05;;;7.80;53.20;;;;;;6039686;23;20508;-68
2021/01/23 12:36:45;;;;;;;3.80;2.40;;;7.70;53.30;;;;;;6039510;23;20170;-68
2021/01/23 12:39:13;;;;;;;3.92;2.47;;;7.70;53.30;;;;;;6039230;23;20653;-69
2021/01/23 12:41:40;;;;;;;2.75;1.73;;;7.70;53.30;;;;;;6039888;23;20229;-70
2021/01/23 12:44:08;;;;;;;5.10;2.25;;;7.60;53.60;;;;;;6032967;23;20206;-68
2021/01/23 12:46:34;;;;;;;5.47;3.00;;;7.60;53.60;;;;;;6037855;23;20689;-68
2021/01/23 12:49:02;;;;;;;5.03;2.60;;;7.60;53.60;;;;;;6038870;23;20205;-68
2021/01/23 12:51:28;;;;;;;5.95;2.67;;;7.60;53.40;;;;;;6038970;23;20245;-68
2021/01/23 12:53:54;;;;;;;3.30;2.35;;;7.60;53.40;;;;;;6037700;23;20253;-68
2021/01/23 12:56:21;;;;;;;3.40;2.55;;;7.60;53.70;;;;;;6038416;23;20246;-68
2021/01/23 12:58:47;;;;;;;4.32;1.92;;;7.60;53.60;;;;;;6038820;23;20206;-69
2021/01/23 13:01:13;;;;;;;3.03;2.05;;;7.60;53.40;;;;;;6039287;23;20191;-68
2021/01/23 13:03:40;;;;;;;3.13;1.85;;;7.70;53.00;;;;;;6038773;23;20305;-68